Tiempo atmosférico en la estación meteorológica de Cervera De Pisuerga, Palencia (1140 m.)



Fecha
DESCASC
Temp. máxima en grados centígrados (hora)
DESCASC
Temp. mínima en grados centígrados (hora)
DESCASC
Temp. media en grados centígrados
DESCASC
Racha de viento máxima en m/sg (hora)
DESCASC
Velocidad máxima media en intervalos de 10 minutos(hora)
DESCASC
Precipitaciones diarias en mm
DESCASC
Precipitaciones de 00:00 a 06:00 en mm
DESCASC
Precipitaciones de 06:00 a 12:00 en mm
DESCASC
Precipitaciones de 12:00 a 18:00 en mm
DESCASC
Precipitaciones de 18:00 a 24:00 en mm
DESCASC
08-12-2019 6.5 (15:40) -0.9 (05:30) 2.8 5.83 (05:30) 2.78 (16:20) 0.4 0 0.2 0.2 0
07-12-2019 12.8 (14:50) 0 (08:10) 6.4 5.28 (14:00) 3.33 (14:40) 0 0 0 0 0
06-12-2019 10.8 (15:10) -0.2 (06:40) 5.3 5.56 (03:10) 3.33 (15:10) 0 0 0 0 0
05-12-2019 9.5 (14:20) 1.8 (00:00) 5.6 15.56 (01:30) 7.22 (01:30) 0 0 0 0 0
04-12-2019 10.1 (15:10) -4 (00:30) 3.1 15 (23:20) 5.83 (23:40) 0 0 0 0 0
03-12-2019 6.6 (15:50) -3.6 (-00:0) 1.5 11.11 (03:10) 5 (08:40) 0 0 0 0 0
02-12-2019 5.8 (12:20) 0 (00:00) 2.9 14.17 (21:40) 7.5 (21:40) 0 0 0 0 0
01-12-2019 7.6 (15:00) 0.9 (00:00) 4.2 8.61 (16:50) 4.44 (16:50) 5.2 3.8 1 0 0.4
30-11-2019 10.2 (12:20) 0.8 (00:00) 5.5 17.22 (15:10) 8.89 (11:40) 12.6 3.6 7.8 1.2 0
29-11-2019 13.7 (15:40) 2.8 (00:00) 8.2 6.67 (15:50) 3.89 (01:40) 0 0 0 0 0
28-11-2019 9 (12:50) 4.5 (04:20) 6.8 16.11 (15:30) 6.67 (16:30) 15 0.2 0.2 11 3.6
27-11-2019 7.1 (17:30) 4.5 (00:00) 5.8 21.11 (00:40) 11.11 (00:40) 5.2 0 0.2 4.6 0.4
26-11-2019 12.4 (14:00) 4.1 (00:00) 8.2 24.44 (18:10) 10.56 (19:10) 10 0 2.4 0.2 7.4
25-11-2019 11.8 (14:30) 4.5 (03:30) 8.2 10 (15:10) 5 (14:30) 0 0 0 0 0
24-11-2019 8 (15:20) -0.9 (-00:0) 3.6 10 (16:00) 4.72 (15:20) 1 0 0 0.2 0.8
23-11-2019 6.5 (14:20) 1.9 (00:00) 4.2 18.33 (00:40) 7.78 (00:30) 4.8 4.4 0.2 0.2 0
22-11-2019 8.1 (16:10) 2.7 (00:00) 5.4 -- (--) -- (--) 65.4 1.2 34.6 22.4 7.2
21-11-2019 7.1 (13:00) 1.9 (00:00) 4.5 9.72 (05:00) 5.28 (14:20) 4.4 2.4 2 0 0
20-11-2019 6.7 (12:00) -0.1 (01:50) 3.3 9.44 (23:10) 5.28 (23:10) 2 0 0 0.6 1.4
19-11-2019 6.6 (15:30) -3.2 (-00:0) 1.7 5.83 (01:30) 3.06 (10:40) 0 0 0 0 0
18-11-2019 5 (16:00) -0.7 (-00:0) 2.2 9.17 (12:20) 4.72 (12:20) 3 1.2 1.8 0 0
17-11-2019 9.9 (14:00) -2.2 (-00:0) 3.8 10.28 (16:40) 5 (14:50) 4 0 1.6 2 0.4
16-11-2019 4.3 (12:40) -4.5 (-00:0) -0.1 8.33 (15:50) 4.17 (15:50) 5.4 0.4 1.2 3.6 0.2
15-11-2019 2.7 (15:40) -3.2 (-00:0) -0.3 8.89 (10:00) 3.89 (22:40) 8.8 0.6 0.2 5.8 2.2
14-11-2019 4.9 (11:10) -3.2 (-00:0) 0.9 -- (--) -- (--) 3.6 3 0 0 0.6
13-11-2019 10.4 (16:10) 3.3 (00:00) 6.8 11.39 (23:40) 6.39 (23:50) 6.4 6.2 0.2 0 0
12-11-2019 9.7 (13:10) 0 (00:00) 4.8 10.28 (13:20) 4.44 (14:20) 6 0 0 0.8 5.2

Gráficas

Temp. máximas Temp. mínimas Temp. medias Precipitaciones Rachas de viento máximas Velocidades máximas media en intervalos de 10 minutos

Datos horarios

Fecha y hora oficial Temperatura (ºC) Velocidad del viento (km/h) Dirección del viento Racha (km/h) Dirección de racha Precipitación (mm) Presión (hPa) Tendencia (hPa) Humedad (%)
2019-12-11 23:00:00 2.3 6 Norte 17 Oeste 0 890.2 -0.4 79
2019-12-11 22:00:00 3 7 Noroeste 43 Noroeste 0 890.5 0.2 75
2019-12-11 21:00:00 4.1 10 Oeste 33 Oeste 0 890.5 0.5 63
2019-12-11 20:00:00 4 13 Oeste 35 Oeste 0 890.6 0.9 59
2019-12-11 19:00:00 4.6 14 Oeste 41 Oeste 0 890.3 0.4 54
2019-12-11 18:00:00 4.6 14 Oeste 45 Oeste 0 890 0.1 53
2019-12-11 17:00:00 5.4 18 Oeste 40 Oeste 0 889.7 -0.6 50
2019-12-11 16:00:00 6.8 22 Oeste 60 Oeste 0 889.9 -1.1 44
2019-12-11 15:00:00 7.8 13 Oeste 41 Oeste 0 889.9 -1.4 42
2019-12-11 14:00:00 7.1 10 Oeste 36 Sudoeste 0 890.3 -0.5 46
2019-12-11 13:00:00 5.9 12 Oeste 31 Oeste 0 891 0.8 67
2019-12-11 12:00:00 3.8 7 Este 18 Sur 0 891.3 1.8 96
2019-12-11 11:00:00 1.4 4 Nordeste 15 Sur 0 890.8 1.2 96
2019-12-11 10:00:00 0.7 0 Calma 10 Este 0 890.2 1.2 96
2019-12-11 09:00:00 1.3 3 Este 10 Oeste 0.6 889.5 0.7 96
2019-12-11 08:00:00 0.8 4 Oeste 19 Sudoeste 0 889.6 0.7 96
2019-12-11 07:00:00 0.6 4 Nordeste 14 Sudoeste 0.2 889 -0.6 96
2019-12-11 06:00:00 0.3 2 Norte 10 Nordeste 0.2 888.8 -1.2 95
2019-12-11 05:00:00 0.1 4 Sudeste 20 Sur 0 888.9 -1.7 96
2019-12-11 04:00:00 -0.7 3 Noroeste 12 Este 0 889.6 -1.5 95
2019-12-11 03:00:00 -0.5 7 Nordeste 17 Sudoeste 0 890 -1.5 95
2019-12-11 02:00:00 0 3 Nordeste 17 Sudoeste 0 890.6 -1.4 95
2019-12-11 01:00:00 0.1 4 Nordeste 16 Oeste 0 891.1 -1.4 95
2019-12-11 00:00:00 0.5 3 Norte 17 Sudoeste 0 891.5 -1.4 95
2019-12-10 23:00:00 1 3 Nordeste 18 Sur 0 892 -1.6 94
2019-12-10 22:00:00 1.2 2 Este 9 Oeste 0 892.5 -1.1 93
2019-12-10 21:00:00 2 4 Este 10 Noroeste 0 892.9 -0.7 92
2019-12-10 20:00:00 2.7 2 Este 11 Oeste 0 893.6 -0.4 91
2019-12-10 19:00:00 2.3 3 Noroeste 12 Oeste 0 893.6 -0.4 90
2019-12-10 18:00:00 3 5 Norte 10 Este 0 893.6 -0.7 87
2019-12-10 17:00:00 4.2 8 Este 13 Sur 0 894 -0.9 81
2019-12-10 16:00:00 5.8 8 Nordeste 13 Nordeste 0 894 -2 74
2019-12-10 15:00:00 7.9 6 Nordeste 16 Este 0 894.3 -2.5 63
2019-12-10 14:00:00 9.2 6 Este 14 Nordeste 0 894.9 -2.2 58
2019-12-10 13:00:00 9.1 8 Sudeste 14 Sur 0 896 -1.1 57
2019-12-10 12:00:00 7.6 8 Sudeste 13 Sur 0 896.8 -0.4 58
2019-12-10 11:00:00 5.1 3 Sudoeste 8 Oeste 0 897.1 0.1 63
2019-12-10 10:00:00 1.4 5 Sudoeste 15 Sudoeste 0 897.1 -0.3 72
2019-12-10 09:00:00 -0.4 6 Noroeste 12 Noroeste 0 897.2 -0.5 70
2019-12-10 08:00:00 -1.8 7 Oeste 19 Oeste 0 897 -1.3 81
2019-12-10 07:00:00 -1.2 8 Noroeste 16 Noroeste 0 897.4 -1.1 84
2019-12-10 06:00:00 -2.4 7 Noroeste 18 Oeste 0 897.7 -1.2 88
2019-12-10 05:00:00 -2.2 6 Oeste 22 Oeste 0 898.3 -0.8 89
2019-12-10 04:00:00 -1 7 Noroeste 17 Oeste 0 898.5 -1.1 89
2019-12-10 03:00:00 -1 6 Noroeste 10 Oeste 0 898.9 -0.6 90
2019-12-10 02:00:00 -0.8 7 Oeste 17 Oeste 0 899.1 -0.3 89
2019-12-10 01:00:00 -0.5 5 Oeste 14 Sudoeste 0 899.6 0 90
2019-12-10 00:00:00 -0.5 5 Noroeste 11 Oeste 0 899.5 -0.2 88
2019-12-09 23:00:00 0.6 7 Oeste 15 Oeste 0 899.4 0.2 84
2019-12-09 22:00:00 1.9 6 Noroeste 17 Oeste 0 899.6 0.6 82
2019-12-09 21:00:00 1.3 6 Oeste 11 Oeste 0 899.7 1 82
2019-12-09 20:00:00 2.2 5 Noroeste 17 Oeste 0 899.2 1 80
2019-12-09 19:00:00 1.9 5 Oeste 12 Oeste 0 899 1.2 82
2019-12-09 18:00:00 2.4 6 Norte 11 Oeste 0 898.7 1.4 81
2019-12-09 17:00:00 4 4 Nordeste 10 Sudoeste 0 898.2 1 74
2019-12-09 16:00:00 5.3 0 Calma 13 Sur 0 897.8 0.4 69
2019-12-09 15:00:00 4.7 5 Sudeste 15 Sudeste 0 897.3 -0.2 70
2019-12-09 14:00:00 4.7 8 Sudeste 13 Sudeste 0 897.2 0.2 72
2019-12-09 13:00:00 5 6 Sudeste 12 Este 0 897.4 0.8 70
2019-12-09 12:00:00 6.2 5 Sudeste 13 Sur 0 897.5 1.2 70
2019-12-09 11:00:00 1.8 4 Oeste 18 Oeste 0 897 1.2 80
2019-12-09 10:00:00 -0.1 6 Oeste 21 Oeste 0 896.6 1.8 88
2019-12-09 09:00:00 -2.9 4 Norte 17 Sudoeste 0 896.3 1.8 92
2019-12-09 08:00:00 -3.1 6 Sudoeste 23 Sudeste 0 895.8 1.2 90
2019-12-09 07:00:00 -0.9 10 Este 19 Sur 0 894.8 0.2 74
2019-12-09 06:00:00 1.1 8 Este 18 Sudoeste 0 894.5 -0.1 59
2019-12-09 05:00:00 2.1 7 Norte 19 Oeste 0 894.6 -0.2 51
2019-12-09 04:00:00 1 7 Norte 22 Norte 0 894.6 -0.4 64
2019-12-09 03:00:00 0.3 6 Noroeste 17 Oeste 0 894.6 -0.3 73
2019-12-09 02:00:00 0 8 Noroeste 17 Oeste 0 894.8 0.1 90
2019-12-09 01:00:00 -1.2 5 Oeste 12 Noroeste 0 895 0.3 95
2019-12-09 00:00:00 0.1 4 Noroeste 17 Oeste 0 894.9 0.3 96
2019-12-08 23:00:00 2.1 6 Noroeste 12 Oeste 0 894.7 0.3 96
2019-12-08 22:00:00 3.2 4 Noroeste 12 Oeste 0 894.7 1.1 96
2019-12-08 21:00:00 4 3 Sudoeste 16 Oeste 0 894.6 1.7 96
2019-12-08 20:00:00 4.4 5 Nordeste 14 Oeste 0 894.4 1.9 96
2019-12-08 19:00:00 4.8 3 Noroeste 13 Oeste 0 893.6 1.2 96
2019-12-08 18:00:00 5.4 4 Sudeste 12 Oeste 0 892.9 0.9 96
2019-12-08 17:00:00 5.9 5 Sudeste 13 Sur 0 892.5 0.2 96
2019-12-08 16:00:00 6.3 6 Sur 13 Oeste 0.2 892.4 -0.2 96
2019-12-08 15:00:00 6 3 Sudoeste 14 Oeste 0 892 -0.9 96
2019-12-08 14:00:00 5.8 6 Noroeste 12 Oeste 0 892.3 -1.1 96
2019-12-08 13:00:00 4.9 6 Norte 12 Sudoeste 0 892.6 0.2 97
2019-12-08 12:00:00 3.8 2 Sur 13 Oeste 0.2 892.9 0.8 97
2019-12-08 11:00:00 2.7 3 Noroeste 11 Oeste 0 893.4 1.2 97
2019-12-08 10:00:00 2.3 3 Nordeste 10 Oeste 0 892.4 0.4 97
2019-12-08 09:00:00 1.1 4 Noroeste 14 Oeste 0 892.1 0.1 97
2019-12-08 08:00:00 0.1 4 Noroeste 15 Oeste 0 892.2 0.2 96
2019-12-08 07:00:00 -0.2 3 Norte 17 Oeste 0 892 -0.5 96
2019-12-08 06:00:00 -0.7 3 Noroeste 21 Oeste 0 892 -0.7 96
2019-12-08 05:00:00 -0.6 4 Noroeste 19 Oeste 0 892 -1 96
2019-12-08 04:00:00 -0.6 4 Oeste 17 Oeste 0 892.5 -0.8 96
2019-12-08 03:00:00 -0.5 4 Noroeste 17 Oeste 0 892.7 -0.8 95
2019-12-08 02:00:00 0 2 Nordeste 15 Oeste 0 893 -0.5 96
2019-12-08 01:00:00 -0.1 3 Norte 14 Sudoeste 0 893.3 -0.4 96
2019-12-08 00:00:00 0.4 0 Calma 12 Sudoeste 0 893.5 0 95
2019-12-07 23:00:00 1 5 Oeste 13 Oeste 0 893.5 0.1 95
2019-12-07 22:00:00 2.1 2 Oeste 8 Oeste 0 893.7 0.7 95
2019-12-07 21:00:00 2.5 4 Noroeste 11 Oeste 0 893.5 1 95
2019-12-07 20:00:00 3.3 0 Calma 10 Oeste 0 893.4 1.2 94
2019-12-07 19:00:00 3.4 4 Norte 15 Oeste 0 893 1 93
2019-12-07 18:00:00 4.6 6 Noroeste 13 Oeste 0 892.5 0.6 90
2019-12-07 17:00:00 6.4 6 Este 15 Nordeste 0 892.2 -0.1 84
2019-12-07 16:00:00 8.1 7 Nordeste 17 Nordeste 0 892 -0.7 74
2019-12-07 15:00:00 12.2 12 Este 18 Este 0 891.9 -1.4 61
2019-12-07 14:00:00 12.1 11 Este 19 Sur 0 892.3 -0.8 57
2019-12-07 13:00:00 11 8 Sudeste 16 Sudoeste 0 892.7 -0.1 58
2019-12-07 12:00:00 8.8 4 Sudeste 11 Sur 0 893.3 0.7 69
2019-12-07 11:00:00 4.8 3 Este 11 Oeste 0 893.1 0.8 83
2019-12-07 10:00:00 2.6 7 Noroeste 16 Oeste 0 892.8 0.8 86
2019-12-07 09:00:00 1.2 5 Noroeste 13 Oeste 0 892.6 0.9 88
2019-12-07 08:00:00 0.6 4 Noroeste 15 Oeste 0 892.3 0.6 88
2019-12-07 07:00:00 0.9 6 Oeste 15 Oeste 0 892 0 87
2019-12-07 06:00:00 1.4 6 Noroeste 18 Oeste 0 891.7 -0.6 83
2019-12-07 05:00:00 1.5 7 Oeste 18 Oeste 0 891.7 -0.7 86
2019-12-07 04:00:00 1.9 8 Noroeste 18 Oeste 0 892 -0.7 86
2019-12-07 03:00:00 2.2 10 Noroeste 18 Noroeste 0 892.3 -0.5 91
2019-12-07 02:00:00 2.7 8 Noroeste 17 Oeste 0 892.4 0.1 91
2019-12-07 01:00:00 2.5 4 Oeste 15 Oeste 0 892.7 0.5 91
2019-12-07 00:00:00 2.9 7 Oeste 17 Oeste 0 892.8 0.8 93
2019-12-06 23:00:00 3.1 5 Oeste 17 Oeste 0 892.3 0.8 91
2019-12-06 22:00:00 3.2 8 Noroeste 17 Oeste 0 892.2 1 92
2019-12-06 21:00:00 3.8 4 Noroeste 12 Oeste 0 892 1.1 90
2019-12-06 20:00:00 4.8 4 Este 15 Sudoeste 0 891.5 0.7 85
2019-12-06 19:00:00 6.1 4 Sur 15 Sudoeste 0 891.2 0.3 79
2019-12-06 18:00:00 6.2 5 Norte 17 Nordeste 0 890.9 -0.1 79
2019-12-06 17:00:00 8.4 4 Nordeste 18 Nordeste 0 890.8 -0.8 71
2019-12-06 16:00:00 9.2 8 Sudeste 19 Sur 0 890.9 -1.1 67
2019-12-06 15:00:00 10.5 9 Sur 18 Sur 0 891 -1.7 62
2019-12-06 14:00:00 9.7 11 Sur 19 Sur 0 891.6 -1.2 63
2019-12-06 13:00:00 9.9 6 Sudoeste 15 Oeste 0 892 -0.5 61
2019-12-06 12:00:00 6.9 4 Oeste 12 Oeste 0 892.7 0.9 64
2019-12-06 11:00:00 4.1 5 Oeste 15 Oeste 0 892.8 1 69
2019-12-06 10:00:00 1.6 6 Oeste 12 Noroeste 0 892.5 0.8 73
2019-12-06 09:00:00 1.3 8 Noroeste 14 Noroeste 0 891.8 0.3 74
2019-12-06 08:00:00 0.4 7 Noroeste 15 Noroeste 0 891.8 0 73
2019-12-06 07:00:00 0.6 8 Noroeste 14 Oeste 0 891.7 0.1 70
2019-12-06 06:00:00 0.4 6 Noroeste 13 Noroeste 0 891.5 0 71
2019-12-06 05:00:00 0.4 7 Noroeste 13 Noroeste 0 891.8 0.2 71
2019-12-06 04:00:00 0.3 7 Oeste 20 Sudoeste 0 891.6 -0.6 78
2019-12-06 03:00:00 1.3 6 Noroeste 19 Oeste 0 891.5 -1.1 72
2019-12-06 02:00:00 2.2 8 Noroeste 18 Oeste 0 891.6 -1.2 63
2019-12-06 01:00:00 2.7 10 Noroeste 19 Oeste 0 892.2 -0.1 65
2019-12-06 00:00:00 2 8 Oeste 17 Oeste 0 892.6 0.1 76
2019-12-05 23:00:00 2.2 8 Oeste 18 Noroeste 0 892.8 0.6 87
2019-12-05 22:00:00 2.4 9 Noroeste 18 Oeste 0 892.3 0.5 89
2019-12-05 21:00:00 2.6 7 Noroeste 18 Oeste 0 892.5 1.3 87
2019-12-05 20:00:00 3.6 6 Oeste 26 Norte 0 892.2 1.2 85
2019-12-05 19:00:00 4.1 11 Norte 20 Norte 0 891.8 1 84
2019-12-05 18:00:00 5.4 13 Norte 26 Norte 0 891.2 0.7 80
2019-12-05 17:00:00 6.7 11 Norte 23 Norte 0 891 0.5 76
2019-12-05 16:00:00 7.4 14 Norte 28 Norte 0 890.8 -0.3 73
2019-12-05 15:00:00 9 12 Norte 32 Norte 0 890.5 -0.3 66
2019-12-05 14:00:00 9.1 11 Norte 28 Norte 0 890.5 0 68
2019-12-05 13:00:00 7.4 11 Norte 37 Norte 0 891.1 0.8 72
2019-12-05 12:00:00 9.1 10 Norte 32 Nordeste 0 890.8 1.3 66
2019-12-05 11:00:00 7.4 12 Norte 27 Norte 0 890.5 2 73
2019-12-05 10:00:00 5.8 9 Norte 31 Norte 0 890.3 2.3 79
2019-12-05 09:00:00 5.4 15 Norte 43 Norte 0 889.5 1.8 81
2019-12-05 08:00:00 4.2 14 Noroeste 32 Noroeste 0 888.5 1.1 85
2019-12-05 07:00:00 4.2 18 Norte 42 Norte 0 888 0.7 86
2019-12-05 06:00:00 5.1 13 Norte 36 Norte 0 887.7 1.1 82
2019-12-05 05:00:00 4.6 11 Noroeste 39 Norte 0 887.4 1.6 82
2019-12-05 04:00:00 5.2 14 Norte 47 Norte 0 887.3 1.7 78
2019-12-05 03:00:00 4.6 17 Noroeste 43 Noroeste 0 886.6 1.1 80
2019-12-05 02:00:00 4.7 21 Noroeste 56 Noroeste 0 885.8 0.9 80
2019-12-05 01:00:00 4.7 22 Noroeste 49 Norte 0 885.6 1 78
2019-12-05 00:00:00 4.4 18 Noroeste 54 Norte 0 885.5 0.9 78
2019-12-04 23:00:00 2.8 17 Noroeste 40 Noroeste 0 884.9 0.4 81
2019-12-04 22:00:00 2.9 13 Noroeste 29 Noroeste 0 884.6 0.8 69
2019-12-04 21:00:00 2.6 7 Sur 22 Sudoeste 0 884.6 1.1 63
2019-12-04 20:00:00 2.5 10 Sur 20 Norte 0 884.5 1.5 66
2019-12-04 19:00:00 4 9 Noroeste 18 Norte 0 883.8 1.5 60
2019-12-04 18:00:00 4.6 7 Norte 26 Norte 0 883.5 1.4 60
2019-12-04 17:00:00 7 9 Norte 25 Norte 0 883 0.4 53
2019-12-04 16:00:00 8.5 13 Norte 23 Oeste 0 882.3 -0.6 51
2019-12-04 15:00:00 9.5 10 Norte 24 Noroeste 0 882.1 -1.2 47
2019-12-04 14:00:00 8.9 8 Norte 19 Noroeste 0 882.6 -1 48
2019-12-04 13:00:00 7.8 9 Noroeste 18 Oeste 0 882.9 -0.2 56
2019-12-04 12:00:00 5.4 4 Oeste 16 Oeste 0 883.3 0.8 66
2019-12-04 11:00:00 2 7 Oeste 20 Oeste 0 883.6 1.1 81
2019-12-04 10:00:00 0.7 5 Noroeste 26 Oeste 0 883.1 0.4 83
2019-12-04 09:00:00 -0.2 6 Noroeste 15 Noroeste 0 882.5 -0.1 86
2019-12-04 08:00:00 -1.6 9 Noroeste 17 Oeste 0 882.5 -0.7 89
2019-12-04 07:00:00 -2 6 Noroeste 21 Oeste 0 882.7 -0.9 90
2019-12-04 06:00:00 -1.7 8 Noroeste 14 Noroeste 0 882.6 -1.5 88
2019-12-04 05:00:00 -1.9 5 Oeste 20 Oeste 0 883.2 -1.2 90
2019-12-04 04:00:00 -1.7 4 Noroeste 17 Oeste 0 883.6 -1.3 89
2019-12-04 03:00:00 -2.7 7 Noroeste 19 Oeste 0 884.1 -1.5 88
2019-12-04 02:00:00 -3.4 2 Oeste 16 Oeste 0 884.4 -0.6 88
2019-12-04 01:00:00 -3.3 4 Noroeste 17 Oeste 0 884.9 0.1 89
2019-12-04 00:00:00 -3.3 4 Norte 19 Oeste 0 885.6 0.4 88
2019-12-03 23:00:00 -3.2 6 Noroeste 17 Oeste 0 885 -0.1 88
2019-12-03 22:00:00 -2.8 4 Oeste 17 Oeste 0 884.8 -0.1 83
2019-12-03 21:00:00 -2.5 5 Noroeste 15 Oeste 0 885.2 0.6 87
2019-12-03 20:00:00 -2.4 5 Sudoeste 18 Sur 0 885.1 0.7 84
2019-12-03 19:00:00 -1.6 7 Sudeste 20 Sur 0 884.9 0.3 81
2019-12-03 18:00:00 0.4 10 Este 26 Este 0 884.6 -0.2 72
2019-12-03 17:00:00 3.8 11 Norte 23 Norte 0 884.4 -1 38
2019-12-03 16:00:00 5.7 11 Norte 22 Nordeste 0 884.6 -1.8 35
2019-12-03 15:00:00 6 11 Norte 23 Norte 0 884.8 -2.6 40
2019-12-03 14:00:00 6 12 Norte 24 Norte 0 885.4 -2.3 35
2019-12-03 13:00:00 5.4 14 Norte 27 Norte 0 886.4 -1.4 40
2019-12-03 12:00:00 4.1 15 Norte 34 Norte 0 887.4 -0.6 51
2019-12-03 11:00:00 2.6 16 Norte 31 Noroeste 0 887.7 0 58
2019-12-03 10:00:00 1.4 15 Norte 31 Noroeste 0 887.8 -0.4 63
2019-12-03 09:00:00 -0.2 12 Norte 35 Norte 0 888 -0.5 77
2019-12-03 08:00:00 0 14 Norte 29 Noroeste 0 887.7 -1 77
2019-12-03 07:00:00 0 13 Norte 36 Norte 0 888.2 -0.9 80
2019-12-03 06:00:00 0.2 9 Noroeste 37 Norte 0 888.5 -0.6 79
2019-12-03 05:00:00 0.6 13 Noroeste 34 Noroeste 0 888.7 -0.8 75
2019-12-03 04:00:00 0.4 17 Noroeste 40 Noroeste 0 889.1 -1 78
2019-12-03 03:00:00 0 11 Noroeste 28 Noroeste 0 889.1 -1.1 74
2019-12-03 02:00:00 0.1 8 Noroeste 27 Oeste 0 889.5 -0.9 73
2019-12-03 01:00:00 0 9 Noroeste 39 Norte 0 890.1 -0.6 73
2019-12-03 00:00:00 0.2 13 Noroeste 38 Norte 0 890.2 -0.8 76
2019-12-02 23:00:00 0.2 16 Noroeste 45 Noroeste 0 890.4 -0.2 77
2019-12-02 22:00:00 0.1 13 Noroeste 51 Norte 0 890.7 0.8 80
2019-12-02 21:00:00 0.3 16 Noroeste 47 Norte 0 891 1.3 78
2019-12-02 20:00:00 0.7 20 Norte 41 Norte 0 890.6 0.8 80
2019-12-02 19:00:00 0.7 6 Noroeste 40 Norte 0 889.9 0.6 85
2019-12-02 18:00:00 1.2 20 Norte 46 Norte 0 889.7 0.8 82
2019-12-02 17:00:00 1.9 16 Norte 42 Norte 0 889.8 0.7 84
2019-12-02 16:00:00 2.7 20 Norte 44 Norte 0 889.3 -0.1 83
2019-12-02 15:00:00 3.8 11 Norte 50 Norte 0 888.9 -0.9 80
2019-12-02 14:00:00 4.8 15 Norte 45 Norte 0 889.1 -0.3 77
2019-12-02 13:00:00 5.3 17 Norte 44 Norte 0 889.4 0.5 76
2019-12-02 12:00:00 5.2 16 Norte 37 Norte 0 889.8 1.5 77
2019-12-02 11:00:00 4.2 16 Norte 33 Norte 0 889.4 1.6 82
2019-12-02 10:00:00 3.6 10 Noroeste 33 Norte 0 888.9 1.7 84
2019-12-02 09:00:00 2.4 10 Norte 37 Norte 0 888.3 1.3 87
2019-12-02 08:00:00 2.3 10 Norte 33 Norte 0 887.8 1.2 85
2019-12-02 07:00:00 2.2 15 Norte 31 Norte 0 887.2 0.6 86
2019-12-02 06:00:00 2 9 Noroeste 24 Oeste 0 887 0.5 87
2019-12-02 05:00:00 1.2 13 Norte 27 Norte 0 886.6 0.4 89
2019-12-02 04:00:00 1.5 11 Norte 34 Norte 0 886.6 0.5 89
2019-12-02 03:00:00 1.6 14 Norte 28 Norte 0 886.5 0.8 89
2019-12-02 02:00:00 1.1 3 Norte 22 Norte 0 886.2 0.7 91
2019-12-02 01:00:00 1.1 5 Norte 17 Norte 0 886.1 1 93
2019-12-02 00:00:00 1.1 8 Norte 23 Norte 0 885.7 1 92
2019-12-01 23:00:00 1.4 9 Norte 19 Norte 0 885.5 1.4 92
2019-12-01 22:00:00 1.6 9 Norte 18 Norte 0 885.1 1.6 92
2019-12-01 21:00:00 1.9 5 Nordeste 15 Norte 0.4 884.7 1.5 91
2019-12-01 20:00:00 2.4 8 Norte 18 Noroeste 0 884.1 1.5 91
2019-12-01 19:00:00 2.1 3 Sudoeste 21 Norte 0 883.5 1.4 88
2019-12-01 18:00:00 3.1 9 Norte 24 Noroeste 0 883.2 1.1 85
2019-12-01 17:00:00 4.3 13 Noroeste 31 Norte 0 882.6 0.4 81
2019-12-01 16:00:00 5.2 15 Norte 28 Norte 0 882.1 -0.2 76
2019-12-01 15:00:00 7.5 10 Norte 26 Norte 0 882.1 -0.3 71
2019-12-01 14:00:00 6 13 Norte 23 Norte 0 882.2 0.1 80
2019-12-01 13:00:00 5.6 4 Nordeste 13 Oeste 0 882.3 0.6 91
2019-12-01 12:00:00 4.3 3 Sudoeste 12 Oeste 0 882.4 1.3 95
2019-12-01 11:00:00 3.1 4 Oeste 10 Oeste 0.2 882.1 1.5 96
2019-12-01 10:00:00 1.8 4 Oeste 9 Noroeste 0 881.7 1.6 95
2019-12-01 09:00:00 1.2 5 Oeste 10 Noroeste 0.2 881.1 1 95
2019-12-01 08:00:00 1.2 5 Noroeste 12 Oeste 0.2 880.6 0.2 95
2019-12-01 07:00:00 1.3 0 Calma 13 Oeste 0.4 880.1 -0.7 95
2019-12-01 06:00:00 1.5 3 Norte 10 Oeste 0.8 880.1 -1.2 94
2019-12-01 05:00:00 1.7 0 Calma 12 Oeste 2.6 880.4 -1.3 94
2019-12-01 04:00:00 1.9 3 Este 10 Nordeste 0.4 880.8 -1.2 93
2019-12-01 03:00:00 1.9 5 Oeste 12 Oeste 0 881.3 -1.3 92
2019-12-01 02:00:00 1.1 5 Nordeste 10 Sur 0 881.7 -1.2 91
2019-12-01 01:00:00 1.8 5 Sudoeste 19 Oeste 0 882 -1.2 87
2019-12-01 00:00:00 1.7 8 Sur 19 Sur 0 882.6 -0.6 87
2019-11-30 23:00:00 0.8 6 Norte 15 Oeste 0 882.9 -0.4 86
2019-11-30 22:00:00 2 5 Noroeste 17 Oeste 0 883.2 0 83
2019-11-30 21:00:00 1.4 8 Norte 15 Norte 0 883.2 0.2 86
2019-11-30 20:00:00 3 7 Norte 15 Oeste 0 883.3 0.5 83
2019-11-30 19:00:00 3.6 5 Noroeste 16 Oeste 0 883.2 1.1 78
2019-11-30 18:00:00 5.2 8 Sudoeste 31 Oeste 0 883 -0.4 73
2019-11-30 17:00:00 5.8 13 Sudoeste 33 Oeste 0 882.8 -0.4 74
2019-11-30 16:00:00 6.6 21 Sudoeste 62 Sudoeste 0 882.1 -1.3 66
2019-11-30 15:00:00 6.2 20 Oeste 57 Oeste 0.6 883.4 0.1 76
2019-11-30 14:00:00 8.1 22 Sudoeste 53 Sudoeste 0.2 883.2 -0.4 73
2019-11-30 13:00:00 9.1 19 Oeste 51 Oeste 0.4 883.4 -0.7 76
2019-11-30 12:00:00 9.7 28 Sudoeste 56 Sudoeste 0.6 883.3 -1 92
2019-11-30 11:00:00 9.7 24 Sudoeste 59 Sur 1.2 883.6 -1 94
2019-11-30 10:00:00 9.3 18 Sudoeste 42 Sur 1.4 884.1 -0.9 95
2019-11-30 09:00:00 9.1 22 Sudoeste 55 Sudoeste 3.8 884.3 -1.2 95
2019-11-30 08:00:00 8.9 24 Sudoeste 52 Sur 0.4 884.6 -1.5 95
2019-11-30 07:00:00 9 22 Sudoeste 48 Sur 0.4 885 -2.1 95
2019-11-30 06:00:00 9.1 24 Sudoeste 60 Sur 1.6 885.5 -2.2 94
2019-11-30 05:00:00 8.1 18 Sudoeste 34 Sudoeste 0.4 886.1 -2 96
2019-11-30 04:00:00 5.7 5 Sur 12 Oeste 1.4 887.1 -1.6 95
2019-11-30 03:00:00 5.2 4 Nordeste 16 Oeste 0.2 887.7 -1.3 93
2019-11-30 02:00:00 5.4 6 Nordeste 18 Sur 0 888.1 -1.5 91
2019-11-30 01:00:00 4.4 6 Sur 19 Oeste 0 888.7 -1.1 88
2019-11-30 00:00:00 5.1 12 Oeste 18 Oeste 0 889 -0.7 85
2019-11-29 23:00:00 3 6 Norte 18 Oeste 0 889.6 -0.1 90
2019-11-29 22:00:00 3.8 8 Noroeste 16 Oeste 0 889.8 0.3 87
2019-11-29 21:00:00 4.1 8 Sudoeste 16 Oeste 0 889.7 0.6 86
2019-11-29 20:00:00 5.5 6 Sudoeste 18 Sudoeste 0 889.7 0.5 82
2019-11-29 19:00:00 6.7 7 Sudoeste 19 Oeste 0 889.5 0.5 74
2019-11-29 18:00:00 8.9 6 Sudoeste 20 Sur 0 889.1 0 64
2019-11-29 17:00:00 12.7 7 Sudoeste 24 Sur 0 889.2 -0.3 56
2019-11-29 16:00:00 13.4 12 Sudoeste 24 Sur 0 889 -0.9 59
2019-11-29 15:00:00 13.2 6 Sudoeste 22 Sur 0 889.1 -1.2 60
2019-11-29 14:00:00 11.6 8 Este 18 Sur 0 889.5 -0.5 74
2019-11-29 13:00:00 11 9 Sur 19 Oeste 0 889.9 0.5 81
2019-11-29 12:00:00 7.5 7 Nordeste 15 Sur 0 890.3 1.5 95
2019-11-29 11:00:00 5.8 5 Sur 15 Oeste 0 890 1.9 96
2019-11-29 10:00:00 4.2 8 Noroeste 17 Oeste 0 889.4 2.1 96
2019-11-29 09:00:00 4 5 Oeste 18 Oeste 0 888.8 2 96
2019-11-29 08:00:00 4.2 9 Noroeste 19 Oeste 0 888.1 2 95
2019-11-29 07:00:00 4.2 5 Nordeste 18 Oeste 0 887.3 1.5 93
2019-11-29 06:00:00 5.5 6 Oeste 19 Oeste 0 886.8 1.4 91
2019-11-29 05:00:00 6.1 10 Oeste 22 Oeste 0 886.1 1.1 92
2019-11-29 04:00:00 6.8 12 Oeste 21 Oeste 0 885.8 1.2 94
2019-11-29 03:00:00 7 8 Oeste 18 Oeste 0 885.4 1.4 95
2019-11-29 02:00:00 7.1 8 Oeste 18 Oeste 0 885 1.7 95
2019-11-29 01:00:00 7.3 4 Nordeste 22 Oeste 0 884.6 1.5 95
2019-11-29 00:00:00 7.6 9 Oeste 21 Oeste 0 884 1.3 95
2019-11-28 23:00:00 7.5 7 Sudoeste 18 Este 0 883.3 0.7 95
2019-11-28 22:00:00 7.5 5 Nordeste 23 Sur 0.2 883.1 1 94
2019-11-28 21:00:00 7.9 11 Oeste 37 Sudoeste 0.2 882.7 1 92
2019-11-28 20:00:00 7.5 10 Sudoeste 35 Sudoeste 2 882.6 0.9 93
2019-11-28 19:00:00 7.9 17 Sudoeste 42 Oeste 1.2 882.1 0.9 91
2019-11-28 18:00:00 8.2 21 Sudoeste 44 Oeste 1 881.7 0.3 90
2019-11-28 17:00:00 8.3 13 Oeste 54 Oeste 3.6 881.7 -0.1 90
2019-11-28 16:00:00 8.4 18 Sudoeste 58 Sur 3.2 881.2 -1 92
2019-11-28 15:00:00 8.3 14 Sudoeste 49 Oeste 2.8 881.4 -1.7 91
2019-11-28 14:00:00 8.4 16 Sudoeste 50 Sudoeste 0.2 881.8 -1.3 90
2019-11-28 13:00:00 8.8 17 Sudoeste 43 Oeste 0.2 882.2 -0.6 89
2019-11-28 12:00:00 8.5 14 Sudoeste 42 Sudoeste 0.2 883.1 0.6 90
2019-11-28 11:00:00 8.4 17 Sudoeste 34 Sudoeste 0 883.1 1.3 86
2019-11-28 10:00:00 7.7 9 Sudoeste 26 Sudoeste 0 882.8 1.3 89
2019-11-28 09:00:00 7.2 9 Sudoeste 22 Oeste 0 882.5 1.6 88
2019-11-28 08:00:00 6.9 10 Oeste 23 Oeste 0 881.8 1 88
2019-11-28 07:00:00 6.6 8 Este 35 Sudoeste 0 881.5 0.7 89
2019-11-28 06:00:00 6.3 10 Sudoeste 29 Oeste 0 880.9 0.5 93
2019-11-28 05:00:00 4.7 7 Nordeste 15 Sudoeste 0 880.8 0.4 93
2019-11-28 04:00:00 5.1 6 Norte 25 Sudoeste 0 880.8 0.4 90
2019-11-28 03:00:00 6.4 17 Sudoeste 35 Sudoeste 0.2 880.4 -0.1 88
2019-11-28 02:00:00 6.2 15 Sudoeste 43 Oeste 0 880.4 -0.1 89
2019-11-28 01:00:00 6 21 Sudoeste 40 Sudoeste 0 880.4 0.4 88
2019-11-28 00:00:00 6.3 11 Sudoeste 42 Sudoeste 0 880.5 0.5 86
2019-11-27 23:00:00 6.1 18 Sudoeste 39 Oeste 0.2 880.5 1 89
2019-11-27 22:00:00 5.9 18 Sudoeste 44 Sudoeste 0.2 880 0.2 88
2019-11-27 21:00:00 6 19 Sudoeste 49 Sudoeste 0 880 0.7 84
2019-11-27 20:00:00 6.1 20 Sudoeste 37 Oeste 0 879.5 0.6 79
2019-11-27 19:00:00 6.1 21 Sudoeste 41 Sudoeste 0 879.8 1.2 83
2019-11-27 18:00:00 6.4 21 Sudoeste 48 Oeste 0.2 879.3 0.3 79
2019-11-27 17:00:00 6.8 15 Sudoeste 38 Oeste 0 878.9 0.2 80
2019-11-27 16:00:00 6 6 Sur 30 Oeste 0.8 878.6 -1.1 89
2019-11-27 15:00:00 6.3 10 Oeste 45 Sudoeste 2 879 -1.1 90
2019-11-27 14:00:00 6.5 15 Sudoeste 40 Sudoeste 1.2 878.7 -1.4 91
2019-11-27 06:00:00 5 19 Sudoeste 37 Sudoeste 0 876.9 0.9 85
2019-11-27 05:00:00 4.5 21 Sudoeste 43 Sudoeste 0 876.6 0.6 86
2019-11-27 04:00:00 5.3 19 Sudoeste 41 Sudoeste 0 876.4 1.7 80
2019-11-27 03:00:00 5.4 19 Sudoeste 35 Sudoeste 0 876 1.5 77
2019-11-27 02:00:00 5.4 7 Oeste 58 Sudoeste 0 876 1.6 74
2019-11-27 01:00:00 5.7 34 Sudoeste 76 Sudoeste 0 874.7 0.2 74
2019-11-27 00:00:00 5.9 32 Sudoeste 73 Sudoeste 0 874.5 0.2 72
2019-11-26 23:00:00 6.4 31 Sudoeste 67 Sudoeste 0 874.4 0.9 78
2019-11-26 22:00:00 7 26 Sudoeste 60 Sudoeste 0.6 874.5 1.1 82
2019-11-26 21:00:00 7.7 20 Sudoeste 85 Sur 5.4 874.3 0.4 89
2019-11-26 20:00:00 8.4 29 Sudoeste 73 Sur 1.4 873.5 -0.6 89
2019-11-26 19:00:00 10.1 31 Sudoeste 88 Sudoeste 0 873.4 -1.4 76
2019-11-26 18:00:00 10.8 31 Sudoeste 77 Oeste 0 873.9 -2.2 70
2019-11-26 17:00:00 11.2 25 Sudoeste 64 Sudoeste 0 874.1 -2.7 74
2019-11-26 16:00:00 11.1 31 Sudoeste 61 Sudoeste 0 874.8 -3.2 77
2019-11-26 15:00:00 11.2 27 Sudoeste 59 Sudoeste 0 876.1 -2.9 76
2019-11-26 14:00:00 12 25 Sudoeste 60 Sudoeste 0 876.8 -3.1 74
2019-11-26 13:00:00 10.5 25 Sudoeste 60 Sudoeste 0.2 878 -2.6 89
2019-11-26 12:00:00 10.4 24 Sudoeste 43 Sudoeste 0.4 879 -1.8 94
2019-11-26 11:00:00 9.3 14 Sudoeste 28 Sudoeste 0.4 879.9 -0.6 96
2019-11-26 10:00:00 8.1 14 Sudoeste 24 Sur 0.6 880.6 -0.4 95
2019-11-26 09:00:00 7.7 9 Oeste 27 Sur 0.8 880.8 -0.9 95
2019-11-26 08:00:00 6.9 9 Este 25 Sur 0 880.5 -1.6 95
2019-11-26 07:00:00 6.6 6 Norte 17 Oeste 0.2 881 -1.7 95
2019-11-26 06:00:00 6.3 6 Norte 18 Oeste 0 881.7 -1.1 93
2019-11-26 05:00:00 6.2 6 Nordeste 22 Sur 0 882.1 -1.1 91
2019-11-26 04:00:00 6.6 13 Sur 31 Sudoeste 0 882.7 -1.1 90
2019-11-26 03:00:00 5.9 9 Sudoeste 18 Oeste 0 882.8 -0.5 91
2019-11-26 02:00:00 5.1 8 Este 17 Sur 0 883.2 -0.4 92
2019-11-26 01:00:00 4.4 6 Este 16 Oeste 0 883.8 0.2 91
2019-11-26 00:00:00 4.8 7 Nordeste 18 Oeste 0 883.3 -0.3 89
2019-11-25 23:00:00 5.5 10 Sur 18 Sur 0 883.6 0.1 83
2019-11-25 22:00:00 6.3 5 Norte 20 Oeste 0 883.6 0.1 75
2019-11-25 21:00:00 7.9 9 Oeste 24 Oeste 0 883.6 0.4 69
2019-11-25 20:00:00 7.9 8 Oeste 24 Sur 0 883.5 0.5 67
2019-11-25 19:00:00 8 11 Oeste 26 Noroeste 0 883.5 0.7 72
2019-11-25 18:00:00 8.4 11 Oeste 23 Oeste 0 883.2 0.5 73
2019-11-25 17:00:00 9.4 10 Sudoeste 24 Sudoeste 0 883 0.6 71
2019-11-25 16:00:00 10.2 10 Sudoeste 36 Oeste 0 882.8 0.2 67
2019-11-25 15:00:00 10.9 13 Oeste 35 Oeste 0 882.7 -0.2 62
2019-11-25 14:00:00 11.2 14 Oeste 33 Oeste 0 882.4 -0.1 64
2019-11-25 13:00:00 10.4 15 Sudoeste 30 Sudoeste 0 882.6 0.2 72
2019-11-25 12:00:00 10.1 12 Sudoeste 29 Sudoeste 0 882.9 1 81
2019-11-25 11:00:00 7.9 14 Sudoeste 30 Sudoeste 0 882.5 1 96
2019-11-25 10:00:00 6.1 6 Este 18 Este 0 882.4 1.4 96
2019-11-25 09:00:00 5 5 Nordeste 18 Oeste 0 881.9 1.3 96
2019-11-25 08:00:00 5 5 Sudoeste 17 Oeste 0 881.5 1 96
2019-11-25 07:00:00 5.3 4 Sudoeste 17 Sudoeste 0 881 0.8 96
2019-11-25 06:00:00 5.3 6 Nordeste 14 Oeste 0 880.6 0.6 96
2019-11-25 05:00:00 5.7 6 Sudoeste 16 Oeste 0 880.5 0.2 96
2019-11-25 04:00:00 4.9 7 Sur 17 Sur 0 880.2 -0.1 95
2019-11-25 03:00:00 4.8 5 Nordeste 15 Oeste 0 880 -0.2 95
2019-11-25 02:00:00 5.4 4 Sudoeste 15 Sudoeste 0 880.3 -0.3 95
2019-11-25 01:00:00 5.6 6 Sudoeste 17 Sudoeste 0 880.3 -0.6 95
2019-11-25 00:00:00 5.9 6 Sudoeste 32 Sudoeste 0 880.2 -0.9 94
2019-11-24 23:00:00 5.1 8 Sudeste 34 Sudoeste 0.2 880.6 -1 94
2019-11-24 22:00:00 4.7 6 Sudoeste 24 Sudoeste 0 880.9 -0.9 95
2019-11-24 21:00:00 3.9 8 Nordeste 19 Nordeste 0.4 881.1 -0.7 94
2019-11-24 20:00:00 4.2 6 Sudoeste 29 Sudoeste 0 881.6 -0.2 92
2019-11-24 19:00:00 3.9 5 Oeste 28 Sudoeste 0.2 881.8 0 89
2019-11-24 18:00:00 4.1 10 Oeste 29 Oeste 0.2 881.8 0.2 85
2019-11-24 17:00:00 5 9 Sudoeste 33 Sudoeste 0 881.8 -0.2 77
2019-11-24 16:00:00 5.6 17 Sudoeste 36 Sur 0 881.8 -0.9 74
2019-11-24 15:00:00 7.1 14 Sudoeste 33 Sur 0 881.6 -1.7 66
2019-11-24 14:00:00 6.1 6 Sudoeste 18 Sur 0 882 -1.5 70
2019-11-24 13:00:00 4.9 6 Norte 13 Noroeste 0 882.7 -0.3 80
2019-11-24 12:00:00 4.4 2 Este 12 Sur 0 883.3 0.9 82
2019-11-24 11:00:00 3.7 4 Este 14 Sudoeste 0 883.5 1.7 87
2019-11-24 10:00:00 0.8 5 Oeste 18 Oeste 0 883 1.7 92
2019-11-24 09:00:00 -0.5 6 Noroeste 19 Oeste 0 882.4 1.4 93
2019-11-24 08:00:00 -0.4 5 Este 9 Sudeste 0 881.8 0.7 91
2019-11-24 07:00:00 0.1 4 Sudeste 19 Sudoeste 0 881.3 0.7 89
2019-11-24 06:00:00 0.3 6 Norte 12 Norte 0 881 0.8 90
2019-11-24 05:00:00 0.1 5 Norte 12 Noroeste 0 881.1 1.5 90
2019-11-24 04:00:00 -0.3 4 Este 14 Oeste 0 880.6 0.9 91
2019-11-24 03:00:00 0.2 4 Este 18 Sur 0 880.2 1 89
2019-11-24 02:00:00 0.9 5 Nordeste 29 Oeste 0 879.6 0.6 83
2019-11-24 01:00:00 2.1 8 Noroeste 25 Oeste 0 879.7 1.3 80
2019-11-24 00:00:00 2.9 9 Oeste 26 Oeste 0 879.2 1.5 74
2019-11-23 23:00:00 3.3 9 Oeste 26 Oeste 0 879 1.9 71
2019-11-23 22:00:00 3.3 10 Noroeste 26 Noroeste 0 878.4 1.7 65
2019-11-23 21:00:00 3.6 9 Noroeste 41 Oeste 0 877.7 1.8 64
2019-11-23 20:00:00 3.3 12 Noroeste 27 Noroeste 0 877.1 1.7 67
2019-11-23 19:00:00 3.5 12 Noroeste 21 Oeste 0 876.7 2.2 67
2019-11-23 18:00:00 3.6 9 Noroeste 22 Oeste 0 875.9 1.8 71
2019-11-23 17:00:00 4.7 10 Oeste 34 Oeste 0 875.4 2.1 72
2019-11-23 16:00:00 5.6 12 Oeste 33 Oeste 0 874.5 1.7 74
2019-11-23 15:00:00 4.4 6 Oeste 33 Oeste 0.2 874.1 2 80
2019-11-23 14:00:00 5.8 8 Oeste 31 Oeste 0 873.3 2.3 71
2019-11-23 13:00:00 4.5 10 Oeste 35 Oeste 0 872.8 3.6 73
2019-11-23 12:00:00 4 19 Noroeste 39 Noroeste 0 872.1 4.7 75
2019-11-23 11:00:00 4.2 3 Oeste 14 Oeste 0 871 5.2 78
2019-11-23 10:00:00 2.8 7 Sudeste 24 Noroeste 0 869.2 5.1 72
2019-11-23 09:00:00 2.9 14 Oeste 33 Oeste 0 867.4 4.8 75
2019-11-23 08:00:00 2.6 11 Noroeste 36 Noroeste 0 865.8 3.9 77
2019-11-23 07:00:00 2.4 9 Noroeste 23 Noroeste 0.2 864.1 3.2 93
2019-11-23 06:00:00 2.5 7 Norte 27 Oeste 1.4 862.6 2.6 91
2019-11-23 05:00:00 2.8 10 Oeste 30 Oeste 2.2 861.9 2.8 90
2019-11-23 04:00:00 3.1 10 Noroeste 28 Sudoeste 0.4 860.9 2.1 90
2019-11-23 03:00:00 2.9 8 Sudoeste 34 Sudoeste 0.2 860 1.4 90
2019-11-23 02:00:00 3.7 15 Sudoeste 45 Oeste 0.2 859.1 0.3 89
2019-11-23 01:00:00 4 19 Sudoeste 66 Sudoeste 0 858.8 0.5 90
2019-11-23 00:00:00 4.3 26 Sudoeste 58 Sudoeste 0.8 858.6 -0.4 91
2019-11-22 23:00:00 4.6 18 Sudoeste 67 Sur 2.8 858.8 -0.1 92
2019-11-22 22:00:00 4.4 30 Sudoeste 57 Sudoeste 1.2 858.3 -1 92
2019-11-22 21:00:00 4.4 24 Sudoeste 56 Sudoeste 1 859 0.4 92
2019-11-22 20:00:00 4.6 26 Sudoeste -- -- 1.4 858.9 0.5 90
2019-11-22 19:00:00 5.3 18 Sudoeste -- -- 0 859.3 1.7 83
2019-11-22 18:00:00 5.4 -- -- -- -- 1 858.6 0.5 85
2019-11-22 17:00:00 6.5 -- -- -- -- 4 858.4 -0.7 89
2019-11-22 16:00:00 8 -- -- -- -- 0.2 857.6 -3.4 91
2019-11-22 15:00:00 7.7 -- -- -- -- 1.2 858.1 -4.7 94
2019-11-22 14:00:00 6.9 39 Sur 64 Sur 5 859.1 -4.9 95
2019-11-22 13:00:00 5.4 18 Sur 41 Sur 11 861 -4.1 95
2019-11-22 12:00:00 5.1 14 Sur 48 Sur 10 862.8 -3.7 95
2019-11-22 11:00:00 4.6 22 Sudoeste 46 Sur 5.6 864 -3.2 94
2019-11-22 10:00:00 4 24 Sur 42 Sur 6.2 865.1 -2.7 94
2019-11-22 09:00:00 2.8 23 Sur 50 Sur 6 866.5 -2.9 93
2019-11-22 08:00:00 3.2 23 Sudoeste 53 Sudoeste 4.6 867.2 -3 92
2019-11-22 07:00:00 3.1 24 Sudoeste -- -- 2.2 867.8 -3.6 91
2019-11-22 06:00:00 3.3 -- -- -- -- 1 869.4 -2.7 89
2019-11-22 05:00:00 3.6 -- -- -- -- 0.2 870.2 -2.8 82
2019-11-22 04:00:00 3.6 -- -- -- -- 0 871.4 -2.6 89
2019-11-22 03:00:00 3.7 17 Sudoeste -- -- 0 872.1 -2.4 87
2019-11-22 02:00:00 3.8 -- -- -- -- 0 873 -2 85
2019-11-22 01:00:00 3.8 16 Sudoeste 33 Sur 0 874 -1.3 81
2019-11-22 00:00:00 3.2 7 Sudoeste 22 Oeste 0 874.5 -1 81
2019-11-21 23:00:00 2.9 3 Sudeste 30 Sur 0 875 -0.9 81
2019-11-21 22:00:00 2.3 4 Sur 16 Sur 0 875.3 -0.4 81
2019-11-21 21:00:00 3.2 3 Oeste 23 Oeste 0 875.5 0 73
2019-11-21 20:00:00 3.5 7 Sudoeste 30 Sudoeste 0 875.9 0.5 74
2019-11-21 19:00:00 3.8 13 Sudoeste 34 Sur 0 875.7 0.5 74
2019-11-21 18:00:00 4.1 8 Sudoeste 29 Sudoeste 0 875.5 0.4 72
2019-11-21 17:00:00 4.8 12 Sudoeste 31 Sudoeste 0 875.4 0.5 68
2019-11-21 16:00:00 4.4 11 Sudoeste -- -- 0 875.2 -0.1 69
2019-11-21 15:00:00 5.1 17 Sudoeste 33 Sudoeste 0 875.1 -0.5 66
2019-11-21 14:00:00 5.4 18 Sudoeste 32 Oeste 0 874.9 -0.5 63
2019-11-21 13:00:00 7.1 13 Sudoeste 28 Sudoeste 0 875.3 0 64
2019-11-21 12:00:00 5.9 12 Sudoeste 30 Sudoeste 0 875.6 0.6 66
2019-11-21 11:00:00 5.4 9 Sudoeste 29 Sudoeste 0 875.4 0.9 75
2019-11-21 10:00:00 3.1 10 Sudoeste 27 Sur 0.2 875.3 0.7 90
2019-11-21 09:00:00 2.3 5 Oeste 29 Sur 0.6 875 0.6 93
2019-11-21 08:00:00 2.4 13 Sudoeste 28 Sur 0.8 874.5 -0.2 94
2019-11-21 07:00:00 2.5 13 Sudoeste 32 Sudoeste 0.4 874.6 0 93
2019-11-21 06:00:00 2.4 6 Sudoeste 30 Sudoeste 0.4 874.4 -0.1 92
2019-11-21 05:00:00 2.5 16 Sudoeste 35 Sudoeste 0 874.7 0.2 93
2019-11-21 04:00:00 2.7 16 Sudoeste 31 Sudoeste 0.8 874.6 -0.3 93
2019-11-21 03:00:00 2.8 5 Sudoeste 30 Sur 0 874.5 -0.7 93
2019-11-21 02:00:00 2.7 12 Sudoeste 34 Sur 1 874.5 -1 92
2019-11-21 01:00:00 3.1 11 Sudoeste 32 Sur 0.2 874.9 -0.7 92
2019-11-21 00:00:00 3.1 14 Sudoeste 34 Sur 0.4 875.2 -0.5 92
2019-11-20 23:00:00 3 11 Sudoeste 31 Sudoeste 0.8 875.5 -0.2 93
2019-11-20 22:00:00 3 5 Sudeste 27 Sur 0 875.6 0.1 92
2019-11-20 21:00:00 2.9 3 Sur 29 Sur 0 875.7 0 91
2019-11-20 20:00:00 3.2 4 Oeste 24 Sur 0.2 875.7 -0.1 92
2019-11-20 19:00:00 2.9 4 Sudeste 12 Sur 0 875.5 -0.4 93
2019-11-20 18:00:00 3 4 Sudeste 27 Sur 0.2 875.7 -0.4 89
2019-11-20 17:00:00 4 6 Sudeste 29 Sudoeste 0 875.8 -0.9 86
2019-11-20 16:00:00 4.6 8 Sur 30 Sudoeste 0.2 875.9 -1.4 84
2019-11-20 15:00:00 5 11 Sur 30 Sudoeste 0 876.1 -1.9 86
2019-11-20 14:00:00 5 12 Sur 30 Sur 0.2 876.7 -1.6 87
2019-11-20 13:00:00 5.4 9 Sur 30 Sur 0 877.3 -1.2 83
2019-11-20 12:00:00 6.6 12 Sur 31 Sur 0 878 -0.6 83
2019-11-20 11:00:00 4.8 9 Sudoeste 28 Sur 0 878.3 -0.4 89
2019-11-20 10:00:00 3 11 Sur 26 Sudoeste 0 878.5 -0.4 93
2019-11-20 09:00:00 2 0 Calma 10 Oeste 0 878.6 -0.6 93
2019-11-20 08:00:00 1.8 2 Norte 11 Sudoeste 0 878.7 -1 92
2019-11-20 07:00:00 1.7 3 Norte 11 Oeste 0 878.9 -1.3 91
2019-11-20 06:00:00 1.4 5 Nordeste 10 Oeste 0 879.2 -1.4 89
2019-11-20 05:00:00 1.5 5 Norte 10 Oeste 0 879.7 -1.3 87
2019-11-20 04:00:00 1.3 4 Sudeste 18 Sudoeste 0 880.2 -1.5 88
2019-11-20 03:00:00 0.4 5 Nordeste 16 Sur 0 880.6 -1.7 90
2019-11-20 02:00:00 0 4 Sudeste 19 Sur 0 881 -1.6 90
2019-11-20 01:00:00 0.1 6 Sur 16 Sudoeste 0 881.7 -0.9 90
2019-11-20 00:00:00 0.4 2 Noroeste 5 Noroeste 0 882.3 -0.5 88
2019-11-19 23:00:00 0.3 2 Noroeste 16 Sur 0 882.6 -0.3 89
2019-11-19 22:00:00 0.4 3 Nordeste 16 Sur 0 882.6 -0.2 88
2019-11-19 21:00:00 0.1 0 Calma 9 Oeste 0 882.8 -0.1 87
2019-11-19 20:00:00 -0.1 3 Nordeste 9 Oeste 0 882.9 -0.1 87
2019-11-19 19:00:00 1.1 4 Norte 11 Noroeste 0 882.8 -0.4 83
2019-11-19 18:00:00 2.4 0 Calma 6 Sur 0 882.9 -0.8 71
2019-11-19 17:00:00 5.2 3 Sudeste 11 Sur 0 883 -1.3 65
2019-11-19 16:00:00 6.1 5 Sudeste 12 Oeste 0 883.2 -1.8 62
2019-11-19 15:00:00 6.1 4 Sudeste 19 Sur 0 883.7 -2.1 64
2019-11-19 14:00:00 5.1 3 Oeste 20 Sudoeste 0 884.3 -1.5 66
2019-11-19 13:00:00 3.7 3 Oeste 16 Oeste 0 885 -0.7 78
2019-11-19 12:00:00 1.2 3 Este 13 Sudoeste 0 885.8 0.1 86
2019-11-19 11:00:00 1.1 6 Este 17 Sur 0 885.8 0.1 85
2019-11-19 10:00:00 0 3 Norte 17 Oeste 0 885.7 0 87
2019-11-19 09:00:00 -2.1 5 Noroeste 17 Oeste 0 885.7 -0.2 90
2019-11-19 08:00:00 -2.7 4 Noroeste 14 Oeste 0 885.7 -0.6 91
2019-11-19 07:00:00 -2.4 6 Noroeste 19 Oeste 0 885.7 -0.7 88
2019-11-19 06:00:00 -2.5 6 Noroeste 12 Oeste 0 885.9 -0.3 89
2019-11-19 05:00:00 -2.5 5 Noroeste 19 Oeste 0 886.3 -0.2 90
2019-11-19 04:00:00 -2.3 6 Noroeste 17 Oeste 0 886.4 -0.4 91
2019-11-19 03:00:00 -1.5 5 Noroeste 21 Oeste 0 886.2 -1.2 90
2019-11-19 02:00:00 -1.6 5 Oeste 21 Oeste 0 886.5 -1 90
2019-11-19 01:00:00 -1.2 6 Oeste 21 Oeste 0 886.8 -0.7 91
2019-11-19 00:00:00 -0.3 6 Oeste 22 Oeste 0 887.4 0.3 89
2019-11-18 23:00:00 -0.1 5 Noroeste 20 Oeste 0 887.5 0.7 90
2019-11-18 22:00:00 -0.4 5 Noroeste 18 Oeste 0 887.5 0.9 92
2019-11-18 21:00:00 -0.1 4 Noroeste 11 Oeste 0 887.1 0.6 92
2019-11-18 20:00:00 0 3 Oeste 17 Sudoeste 0 886.8 0.7 91
2019-11-18 19:00:00 0.8 0 Calma 11 Oeste 0 886.6 1 87
2019-11-18 18:00:00 1.7 5 Norte 11 Norte 0 886.5 1 86
2019-11-18 17:00:00 3.1 3 Norte 21 Noroeste 0 886.1 0.8 80
2019-11-18 16:00:00 4.6 10 Norte 20 Norte 0 885.6 0.1 74
2019-11-18 15:00:00 4.7 7 Noroeste 20 Norte 0 885.5 -0.1 75
2019-11-18 14:00:00 4 10 Norte 23 Norte 0 885.3 -0.2 77
2019-11-18 13:00:00 3.8 12 Norte 33 Norte 0 885.5 0.6 79
2019-11-18 12:00:00 4.5 12 Norte 26 Noroeste 0 885.6 1.2 77
2019-11-18 11:00:00 3.3 9 Noroeste 17 Norte 0 885.5 1.8 86
2019-11-18 10:00:00 2.2 8 Noroeste 16 Norte 0 884.9 1.9 91
2019-11-18 09:00:00 0.7 4 Noroeste 25 Noroeste 1 884.4 1.9 94
2019-11-18 08:00:00 0.3 5 Oeste 11 Oeste 0.6 883.7 1.7 94
2019-11-18 07:00:00 0.5 4 Noroeste 12 Oeste 0.2 883 1.1 93
2019-11-18 06:00:00 0.8 6 Norte 20 Norte 0.2 882.5 1 92
2019-11-18 05:00:00 0.9 9 Noroeste 23 Noroeste 0 882 0.8 92
2019-11-18 04:00:00 0.8 6 Noroeste 22 Norte 0 881.9 1.1 92
2019-11-18 03:00:00 1.2 6 Noroeste 20 Noroeste 0 881.5 1.2 91
2019-11-18 02:00:00 1.3 8 Noroeste 23 Norte 0.2 881.2 1.2 91
2019-11-18 01:00:00 1.4 8 Norte 29 Norte 0.8 880.8 1.1 90
2019-11-18 00:00:00 1.5 7 Noroeste 25 Noroeste 0.2 880.3 1 90
2019-11-17 23:00:00 1 4 Noroeste 21 Oeste 0.2 880 1.1 91
2019-11-17 22:00:00 1 0 Calma 11 Noroeste 0 879.7 1.2 88
2019-11-17 21:00:00 0.9 4 Norte 17 Oeste 0 879.3 0.8 82
2019-11-17 20:00:00 2.3 6 Noroeste 14 Oeste 0 878.9 0.5 72
2019-11-17 19:00:00 2.8 7 Oeste 32 Oeste 0 878.5 0.4 69
2019-11-17 18:00:00 3.6 11 Oeste 30 Oeste 0 878.5 0.3 71
2019-11-17 17:00:00 6.3 8 Sudoeste 37 Sudoeste 0 878.4 -0.5 59
2019-11-17 16:00:00 7.7 13 Sudoeste 32 Sur 0 878.1 -1.1 59
2019-11-17 15:00:00 8.3 17 Sudoeste 34 Sudoeste 0.2 878.2 -1.4 60
2019-11-17 14:00:00 9.6 9 Sudoeste 19 Sudoeste 1 878.9 -0.9 59
2019-11-17 13:00:00 6.9 5 Nordeste 12 Nordeste 0.8 879.2 -1.1 75
2019-11-17 12:00:00 5.2 5 Este 12 Sur 0.6 879.6 -0.7 81
2019-11-17 11:00:00 2.4 3 Nordeste 15 Sur 0.4 879.8 -0.4 93
2019-11-17 10:00:00 0.7 2 Nordeste 10 Nordeste 0.2 880.3 -0.2 95
2019-11-17 09:00:00 -0.3 5 Este 14 Sudoeste 0.4 880.3 -0.5 95
2019-11-17 08:00:00 -0.8 8 Sudeste 20 Sur 0 880.2 -1.2 95
2019-11-17 07:00:00 -1.1 2 Noroeste 14 Oeste 0 880.5 -0.9 94
2019-11-17 06:00:00 -1.6 4 Noroeste 14 Oeste 0 880.8 -1 94
2019-11-17 05:00:00 -1.8 3 Nordeste 16 Sudoeste 0 881.4 -0.8 93
2019-11-17 04:00:00 -1.7 5 Sudoeste 15 Sudoeste 0 881.4 -1.1 92
2019-11-17 03:00:00 -1.6 4 Este 15 Sudoeste 0 881.8 -0.9 90
2019-11-17 02:00:00 -0.6 4 Noroeste 17 Sur 0 882.2 -0.8 89
2019-11-17 01:00:00 -0.4 3 Norte 17 Oeste 0 882.5 -0.4 90
2019-11-17 00:00:00 -0.8 4 Nordeste 18 Sur 0 882.7 -0.2 89
2019-11-16 23:00:00 -1.1 5 Sur 16 Sudoeste 0 883 0.1 87
2019-11-16 22:00:00 -0.4 4 Nordeste 23 Oeste 0 882.9 0 83
2019-11-16 21:00:00 1.3 6 Noroeste 23 Oeste 0 882.9 0.1 72
2019-11-16 20:00:00 1 6 Oeste 19 Oeste 0 882.9 0.4 75
2019-11-16 19:00:00 0.9 8 Sudoeste 23 Sudoeste 0.2 882.9 1 75
2019-11-16 18:00:00 1.4 8 Oeste 30 Oeste 0 882.8 1 68
2019-11-16 17:00:00 2.2 13 Oeste 30 Oeste 0.4 882.5 0.6 75
2019-11-16 16:00:00 2.7 13 Oeste 30 Oeste 0.6 881.9 -0.1 74
2019-11-16 15:00:00 2.6 6 Oeste 27 Oeste 0.6 881.8 -0.4 77
2019-11-16 14:00:00 3.4 8 Oeste 30 Oeste 0.8 881.9 0.1 70
2019-11-16 13:00:00 3.3 3 Nordeste 15 Sur 1.2 882 0.6 79
2019-11-16 12:00:00 3 6 Oeste 16 Oeste 0.6 882.2 1.3 80
2019-11-16 11:00:00 -0.1 5 Noroeste 17 Oeste 0.4 881.8 1.4 92
2019-11-16 10:00:00 -2 5 Noroeste 20 Oeste 0 881.4 1.3 91
2019-11-16 09:00:00 -4.3 4 Norte 17 Oeste 0 880.9 1.1 91
2019-11-16 08:00:00 -3.7 6 Norte 18 Oeste 0 880.4 0.6 90
2019-11-16 07:00:00 -3.9 6 Noroeste 19 Oeste 0.2 880.1 0.5 92
2019-11-16 06:00:00 -3.8 5 Noroeste 19 Oeste 0 879.8 0.5 92
2019-11-16 05:00:00 -3.8 5 Noroeste 19 Oeste 0.2 879.8 1 92
2019-11-16 04:00:00 -3.4 5 Noroeste 18 Oeste 0 879.6 1.3 92
2019-11-16 03:00:00 -2.9 8 Noroeste 18 Oeste 0 879.3 1.2 92
2019-11-16 02:00:00 -3 8 Oeste 19 Oeste 0 878.8 1.1 92
2019-11-16 01:00:00 -2.7 6 Oeste 18 Oeste 0.2 878.3 1.7 93
2019-11-16 00:00:00 -2.1 6 Oeste 18 Oeste 0 878.1 2.3 93
2019-11-15 23:00:00 -1.8 6 Sudeste 20 Sur 0.2 877.7 2.1 94
2019-11-15 22:00:00 -1.5 4 Norte 16 Sur 0.6 876.6 1.5 93
2019-11-15 21:00:00 -0.3 4 Oeste 16 Oeste 0.8 875.8 1.7 94
2019-11-15 20:00:00 -0.3 0 Calma 19 Sudoeste 0.4 875.6 1.5 94
2019-11-15 19:00:00 -0.1 3 Norte 14 Sudoeste 0.2 875.1 1.4 94
2019-11-15 18:00:00 0.1 3 Oeste 19 Oeste 0.8 874.1 0.7 93
2019-11-15 17:00:00 0.4 5 Norte 16 Norte 1 874.1 0.4 91
2019-11-15 16:00:00 2.2 3 Sudoeste 15 Sudoeste 1.6 873.7 -0.1 87
2019-11-15 15:00:00 2.3 8 Sur 19 Sur 1.6 873.4 -0.5 88
2019-11-15 14:00:00 2.1 9 Sudoeste 20 Sudoeste 0.6 873.7 0.6 88
2019-11-15 13:00:00 1.5 8 Oeste 23 Oeste 0.2 873.8 1.2 88
2019-11-15 12:00:00 1.6 4 Norte 23 Sur 0 873.9 1.4 88
2019-11-15 11:00:00 0.7 5 Noroeste 26 Noroeste 0 873.1 1 92
2019-11-15 10:00:00 0 12 Norte 32 Norte 0 872.6 1 94
2019-11-15 09:00:00 -0.2 8 Oeste 22 Oeste 0.2 872.5 1.1 95
2019-11-15 08:00:00 -0.3 6 Noroeste 24 Oeste 0 872.1 0.6 95
2019-11-15 07:00:00 -0.4 3 Norte 19 Sudoeste 0 871.6 0.2 95
2019-11-15 06:00:00 -0.3 4 Oeste 21 Oeste 0.2 871.4 0.2 95
2019-11-15 05:00:00 -0.4 5 Oeste 20 Oeste 0.2 871.5 0 95
2019-11-15 04:00:00 -0.7 6 Noroeste 23 Oeste 0 871.4 -0.1 94
2019-11-15 03:00:00 -1.6 5 Noroeste 18 Oeste 0.2 871.2 -0.1 94
2019-11-15 02:00:00 -2.2 5 Noroeste 18 Oeste 0 871.5 0.5 93
2019-11-15 01:00:00 -2.8 5 Noroeste 18 Oeste 0 871.5 0.8 93
2019-11-15 00:00:00 -3 4 Noroeste 18 Este 0 871.3 1.2 92
2019-11-14 23:00:00 -2.8 5 Este 17 Sudoeste 0 871 1.4 91
2019-11-14 22:00:00 -2.3 5 Sudoeste 19 Norte 0.2 870.7 2 91
2019-11-14 21:00:00 -1.5 5 Norte 20 Oeste 0 870.1 2.1 91
2019-11-14 20:00:00 -0.9 4 Norte 17 Oeste 0 869.6 2.3 91
2019-11-14 19:00:00 0 8 Oeste 27 Oeste 0.4 868.7 1.8 90
2019-11-14 18:00:00 1.5 5 Noroeste 27 Oeste 0 868 0.7 73
2019-11-14 17:00:00 2.6 10 Oeste 28 Oeste 0 867.3 -0.9 64
2019-11-14 16:00:00 4.1 10 Sudoeste 33 Sudoeste 0 866.9 -1.7 67
2019-11-14 15:00:00 3.9 14 Sudoeste 29 Sudoeste 0 867.3 -2 68
2019-11-14 14:00:00 1.8 11 Sudoeste 28 Sudoeste 0 868.2 -1.9 79
2019-11-14 13:00:00 3.8 14 Sudoeste -- -- 0 868.6 -1.6 64
2019-11-14 12:00:00 3 13 Sudoeste 25 Sudoeste 0 869.3 -1.9 66
2019-11-14 11:00:00 3.9 9 Oeste 35 Oeste 0 870.1 -0.8 59
2019-11-14 10:00:00 0.9 14 Oeste 33 Sudoeste 0 870.2 -0.9 61
2019-11-14 09:00:00 0.3 6 Noroeste 32 Oeste 0 871.2 -0.3 61
2019-11-14 08:00:00 -0.4 5 Sudoeste 45 Oeste 0 870.9 -1 66
2019-11-14 07:00:00 0.3 18 Oeste -- -- 0 871.1 -1.5 65
2019-11-14 06:00:00 0.5 9 Oeste 32 Oeste 0 871.5 -1.4 76
2019-11-14 05:00:00 1 4 Oeste 21 Sur 0 871.9 -1.1 88
2019-11-14 04:00:00 1.8 6 Oeste 18 Noroeste 0 872.6 -0.9 90
2019-11-14 03:00:00 1.9 7 Noroeste 28 Oeste 2.4 872.9 -2.2 92
2019-11-14 02:00:00 3.6 11 Sudoeste -- -- 0.4 873 -3.2 88
2019-11-14 01:00:00 4.1 -- -- -- -- 0.2 873.5 -3.3 85
2019-11-14 00:00:00 4.7 -- -- -- -- 0 875.1 -2.2 80
2019-11-13 23:00:00 4.7 10 Sudoeste 25 Sudoeste 0 876.2 -2.4 73
2019-11-13 22:00:00 4.7 14 Sudoeste 40 Oeste 0 876.8 -2.6 74
2019-11-13 21:00:00 5 9 Oeste 21 Oeste 0 877.3 -2.6 74
2019-11-13 20:00:00 6.4 11 Oeste 27 Oeste 0 878.6 -2.3 70
2019-11-13 19:00:00 6.2 9 Oeste 23 Sur 0 879.4 -1.5 73
2019-11-13 18:00:00 6.6 8 Noroeste 22 Oeste 0 879.9 -1.7 72
2019-11-13 17:00:00 8.3 13 Oeste 25 Oeste 0 880.9 -1 65
2019-11-13 16:00:00 10.3 12 Oeste 35 Oeste 0 880.9 -1.4 56
2019-11-13 15:00:00 9.1 13 Oeste 40 Oeste 0 881.6 -0.9 61
2019-11-13 14:00:00 9.1 15 Oeste 36 Oeste 0 881.9 -0.6 62
2019-11-13 13:00:00 8.2 7 Nordeste 17 Oeste 0 882.3 0.4 75
2019-11-13 12:00:00 9.6 8 Sudeste 14 Oeste 0 882.5 1.5 72
2019-11-13 11:00:00 6.6 9 Noroeste 17 Oeste 0 882.5 2.3 79
2019-11-13 10:00:00 6.1 10 Norte 22 Norte 0 881.9 3 85
2019-11-13 09:00:00 4.6 13 Norte 27 Norte 0 881 3 88
2019-11-13 08:00:00 4.1 14 Norte 26 Norte 0.2 880.2 3.5 88
2019-11-13 07:00:00 4 16 Noroeste 28 Norte 0 878.9 2.6 88
2019-11-13 06:00:00 4.5 13 Noroeste 26 Noroeste 0 878 2.7 90
2019-11-13 05:00:00 5 13 Noroeste 27 Norte 0 876.7 1 92
2019-11-13 04:00:00 5.3 12 Norte 27 Norte 0.2 876.3 0.6 95
2019-11-13 03:00:00 4.1 8 Noroeste 19 Oeste 0.6 875.3 -1.5 95
2019-11-13 02:00:00 4.3 8 Noroeste 21 Oeste 4.2 875.7 -1.2 95
2019-11-13 01:00:00 3.9 3 Sur 17 Nordeste 1.2 875.7 -2.2 95
2019-11-13 00:00:00 3.7 6 Oeste 17 Oeste 2 876.8 -1.7 95
2019-11-12 23:00:00 3.5 6 Norte 12 Nordeste 0.4 876.9 -2.3 94
2019-11-12 22:00:00 3.3 4 Noroeste 14 Oeste 0.6 877.9 -1.9 93
2019-11-12 21:00:00 3.2 3 Sur 17 Oeste 0.6 878.5 -1.8 92
2019-11-12 20:00:00 3.2 6 Noroeste 15 Oeste 0.8 879.2 -1.6 92
2019-11-12 19:00:00 3.9 5 Sudoeste 21 Oeste 0.8 879.8 -1.7 89
2019-11-12 18:00:00 4.6 6 Oeste 23 Sudoeste 0.8 880.3 -1.8 87
2019-11-12 17:00:00 5.5 7 Sudoeste 23 Oeste 0 880.8 -2.2 83
2019-11-12 16:00:00 6.5 10 Sudoeste 22 Noroeste 0 881.5 -2.3 76
2019-11-12 15:00:00 7.4 12 Oeste 36 Oeste 0 882.1 -2.7 66
2019-11-12 14:00:00 7 15 Oeste 37 Oeste 0 883 -2.2 65
2019-11-12 13:00:00 8.9 10 Oeste 21 Noroeste 0 883.8 -1.5 59
2019-11-12 12:00:00 8 5 Sudeste 21 Sudoeste 0 884.8 -0.3 65
2019-11-12 11:00:00 4.9 4 Oeste 18 Sudoeste 0 885.2 0 73
2019-11-12 10:00:00 3.6 2 Sudoeste 18 Oeste 0 885.3 -0.1 89
2019-11-12 09:00:00 1.6 3 Noroeste 8 Noroeste 0 885.1 -0.4 90
2019-11-12 08:00:00 1.1 4 Noroeste 15 Oeste 0 885.2 -0.7 88
2019-11-12 07:00:00 1.4 5 Noroeste 16 Sur 0 885.4 -0.7 87
2019-11-12 06:00:00 0.7 3 Noroeste 18 Oeste 0 885.5 -0.9 90
2019-11-12 05:00:00 0.1 6 Oeste 18 Oeste 0 885.9 -1.1 91
2019-11-12 04:00:00 1.1 3 Oeste 8 Oeste 0 886.1 -1.2 87
2019-11-12 03:00:00 1.2 4 Oeste 11 Noroeste 0 886.4 -1.5 87
2019-11-12 02:00:00 1.1 5 Noroeste 9 Noroeste 0 887 -1.2 88
2019-11-12 01:00:00 0.4 3 Oeste 10 Oeste 0 887.3 -0.9 90
2019-11-12 00:00:00 0.7 4 Noroeste 14 Oeste 0 887.9 -0.1 91